createdAt,value
2023-01-31T00:00:19.629Z,32.63
2023-01-31T00:02:47.860Z,33.92
2023-01-31T00:05:16.172Z,46.42
2023-01-31T00:07:44.556Z,33.90
2023-01-31T00:10:14.546Z,38.42
2023-01-31T00:12:42.642Z,32.38
2023-01-31T00:15:13.426Z,26.42
2023-01-31T00:17:41.543Z,27.48
2023-01-31T00:20:13.033Z,34.63
2023-01-31T00:22:41.256Z,28.60
2023-01-31T00:25:10.114Z,35.78
2023-01-31T00:27:39.670Z,30.90
2023-01-31T00:30:10.506Z,37.45
2023-01-31T00:32:39.603Z,40.00
2023-01-31T00:35:08.464Z,24.70
2023-01-31T00:37:36.988Z,43.90
2023-01-31T00:40:06.643Z,22.75
2023-01-31T00:42:37.216Z,36.15
2023-01-31T00:45:08.572Z,32.00
2023-01-31T00:47:37.038Z,30.35
2023-01-31T00:50:06.750Z,24.88
2023-01-31T00:52:35.370Z,29.45
2023-01-31T00:55:04.301Z,28.40
2023-01-31T00:57:32.447Z,29.23
2023-01-31T01:00:00.656Z,29.20
2023-01-31T05:04:08.127Z,23.35
2023-01-31T05:06:36.574Z,27.85
2023-01-31T05:09:05.457Z,29.85
2023-01-31T05:11:34.213Z,25.95
2023-01-31T05:14:02.728Z,23.45
2023-01-31T05:16:31.541Z,27.83
2023-01-31T05:18:59.708Z,21.92
2023-01-31T05:21:30.644Z,25.90
2023-01-31T05:23:58.756Z,24.40
2023-01-31T05:26:26.970Z,40.08
2023-01-31T05:28:55.161Z,24.48
2023-01-31T05:31:23.334Z,22.30
2023-01-31T05:33:51.533Z,28.70
2023-01-31T05:36:19.889Z,20.95
2023-01-31T05:38:50.545Z,25.33
2023-01-31T05:41:18.830Z,27.40
2023-01-31T05:43:46.908Z,28.40
2023-01-31T05:46:15.107Z,17.40
2023-01-31T05:48:43.210Z,26.27
2023-01-31T05:51:11.413Z,20.92
2023-01-31T05:53:39.849Z,29.27
2023-01-31T05:56:09.619Z,25.40
2023-01-31T05:58:39.795Z,29.97
2023-01-31T06:01:07.914Z,27.40
2023-01-31T06:03:36.075Z,29.92
2023-01-31T06:06:05.203Z,25.23
2023-01-31T06:08:33.377Z,28.73
2023-01-31T06:11:04.699Z,24.30
2023-01-31T06:13:34.467Z,26.50
2023-01-31T06:16:02.573Z,30.35
2023-01-31T06:18:30.941Z,30.33
2023-01-31T06:20:59.088Z,25.35
2023-01-31T06:23:27.213Z,30.88
2023-01-31T06:25:56.721Z,30.15
2023-01-31T06:28:25.276Z,23.60
2023-01-31T06:30:54.977Z,29.33
2023-01-31T06:33:31.489Z,27.00
2023-01-31T06:36:07.276Z,20.25
2023-01-31T06:38:35.625Z,27.17
2023-01-31T06:41:03.751Z,36.65
2023-01-31T06:43:32.821Z,29.75
2023-01-31T06:46:02.477Z,27.00
2023-01-31T06:48:30.587Z,27.98
2023-01-31T06:50:58.757Z,29.60
2023-01-31T06:53:26.886Z,40.45
2023-01-31T06:55:55.333Z,22.02
2023-01-31T06:58:23.538Z,26.95
2023-01-31T07:00:51.726Z,25.48
2023-01-31T07:03:21.204Z,30.13
2023-01-31T07:05:49.382Z,25.00
2023-01-31T07:08:19.975Z,24.65
2023-01-31T07:10:49.266Z,29.52
2023-01-31T07:13:18.093Z,19.45
2023-01-31T07:15:48.296Z,21.08
2023-01-31T07:18:16.957Z,30.20
2023-01-31T07:20:48.614Z,20.60
2023-01-31T07:23:16.762Z,23.73
2023-01-31T07:25:44.912Z,31.73
2023-01-31T07:28:13.087Z,24.90
2023-01-31T07:30:43.824Z,39.72
2023-01-31T07:33:12.458Z,27.55
2023-01-31T07:35:42.462Z,22.63
2023-01-31T07:38:12.027Z,29.27
2023-01-31T07:40:42.280Z,30.48
2023-01-31T07:43:10.358Z,35.17
2023-01-31T07:45:42.753Z,26.35
2023-01-31T07:48:10.962Z,32.45
2023-01-31T07:50:39.043Z,21.10
2023-01-31T07:53:07.146Z,33.47
2023-01-31T07:55:38.656Z,30.42
2023-01-31T07:58:06.812Z,26.08
2023-01-31T08:00:52.509Z,28.75
2023-01-31T08:03:36.234Z,31.70
2023-01-31T08:06:08.100Z,36.17
2023-01-31T08:08:37.005Z,28.97
2023-01-31T08:11:06.734Z,31.50
2023-01-31T08:13:36.132Z,34.00
2023-01-31T08:16:05.212Z,34.97
2023-01-31T08:18:33.628Z,30.95
2023-01-31T08:21:01.783Z,32.53
2023-01-31T08:23:30.965Z,22.98
2023-01-31T08:26:48.665Z,25.08
2023-01-31T08:29:18.193Z,20.73
2023-01-31T08:31:46.606Z,24.33
2023-01-31T08:34:14.774Z,24.83
2023-01-31T08:36:43.606Z,23.45
2023-01-31T08:39:11.921Z,24.83
2023-01-31T08:41:44.615Z,19.40
2023-01-31T08:46:42.819Z,31.40
2023-01-31T08:49:11.539Z,23.05
2023-01-31T08:51:39.656Z,22.02
2023-01-31T08:54:12.563Z,27.65
2023-01-31T08:56:43.163Z,22.75
2023-01-31T08:59:22.301Z,35.45
2023-01-31T09:01:54.485Z,25.10
2023-01-31T09:04:22.710Z,19.77
2023-01-31T09:06:50.816Z,24.92
2023-01-31T09:09:20.745Z,28.10
2023-01-31T09:11:48.835Z,22.40
2023-01-31T09:14:16.933Z,30.15
2023-01-31T09:16:46.515Z,26.15
2023-01-31T09:19:18.742Z,28.90
2023-01-31T09:21:46.925Z,30.23
2023-01-31T09:24:15.065Z,25.35
2023-01-31T09:26:43.303Z,30.25
2023-01-31T09:29:11.463Z,36.45
2023-01-31T09:31:39.506Z,26.10
2023-01-31T09:34:08.437Z,30.10
2023-01-31T09:36:38.573Z,31.70
2023-01-31T09:39:09.410Z,26.70
2023-01-31T09:41:44.561Z,32.30
2023-01-31T09:44:18.564Z,38.65
2023-01-31T09:46:53.088Z,32.13
2023-01-31T09:49:29.685Z,35.72
2023-01-31T09:52:01.820Z,31.88
2023-01-31T09:54:36.398Z,33.28
2023-01-31T09:57:16.701Z,31.67
2023-01-31T09:59:51.354Z,31.08
2023-01-31T15:05:51.850Z,22.77
2023-01-31T15:08:42.195Z,20.45
2023-01-31T15:11:42.034Z,19.35
2023-01-31T15:14:37.561Z,25.77
2023-01-31T15:17:31.675Z,21.42
2023-01-31T15:20:14.650Z,24.70
2023-01-31T15:22:47.781Z,25.45
2023-01-31T15:25:32.276Z,23.08
2023-01-31T15:28:01.675Z,26.17
2023-01-31T15:30:34.444Z,27.40
2023-01-31T15:35:36.237Z,25.73
2023-01-31T15:38:10.884Z,23.08
2023-01-31T15:40:39.083Z,27.20
2023-01-31T15:43:23.024Z,32.65
2023-01-31T15:45:52.697Z,27.55
2023-01-31T15:48:22.860Z,32.38
2023-01-31T15:50:53.197Z,25.08
2023-01-31T15:53:24.488Z,27.65
2023-01-31T15:55:56.005Z,25.25
2023-01-31T15:58:26.419Z,26.15
2023-01-31T16:03:28.419Z,27.60
2023-01-31T16:06:00.983Z,25.00
2023-01-31T16:08:34.006Z,25.35
2023-01-31T16:11:04.837Z,23.42
2023-01-31T16:13:34.905Z,25.85
2023-01-31T16:16:04.764Z,25.70
2023-01-31T16:18:33.748Z,26.63
2023-01-31T16:21:16.445Z,26.38
2023-01-31T16:23:46.057Z,28.25
2023-01-31T16:26:17.815Z,34.35
2023-01-31T16:28:50.387Z,25.00
2023-01-31T16:31:21.653Z,26.98
2023-01-31T16:33:52.593Z,26.45
2023-01-31T16:36:24.913Z,29.08
2023-01-31T16:38:59.932Z,29.35
2023-01-31T16:41:42.932Z,28.08
2023-01-31T16:46:46.027Z,31.20
2023-01-31T16:49:23.252Z,27.77
2023-01-31T16:51:52.650Z,27.13
2023-01-31T16:54:24.683Z,26.60
2023-01-31T16:57:21.292Z,30.85
2023-01-31T16:59:53.700Z,29.85
2023-01-31T17:02:26.927Z,33.72
2023-01-31T17:04:57.492Z,28.10
2023-01-31T17:07:27.963Z,29.65
2023-01-31T17:09:59.974Z,28.67
2023-01-31T17:12:30.235Z,29.80
2023-01-31T17:15:02.422Z,25.20
2023-01-31T17:17:37.363Z,32.30
2023-01-31T17:20:06.212Z,29.25
2023-01-31T17:22:34.421Z,29.95
2023-01-31T17:25:03.910Z,30.20
2023-01-31T17:27:34.328Z,28.37
2023-01-31T17:30:02.399Z,28.45
2023-01-31T17:32:32.253Z,30.75
2023-01-31T17:35:00.463Z,31.35
2023-01-31T17:37:31.904Z,29.70
2023-01-31T17:40:01.381Z,30.80
2023-01-31T17:42:31.033Z,31.67
2023-01-31T17:44:59.532Z,25.83
2023-01-31T17:47:30.044Z,28.58
2023-01-31T17:49:58.704Z,30.48
2023-01-31T17:52:26.887Z,28.75
2023-01-31T17:54:56.072Z,29.98
2023-01-31T17:57:24.957Z,29.08
2023-01-31T17:59:54.412Z,26.33
2023-01-31T18:02:22.930Z,25.45
2023-01-31T18:04:51.386Z,27.90
2023-01-31T18:07:19.843Z,26.05
2023-01-31T18:09:47.990Z,30.15
2023-01-31T18:12:16.622Z,23.55
2023-01-31T18:14:45.200Z,24.58
2023-01-31T18:17:14.819Z,25.48
2023-01-31T18:19:42.918Z,24.88
2023-01-31T18:22:11.157Z,23.15
2023-01-31T18:24:39.468Z,23.50
2023-01-31T18:27:07.637Z,29.10
2023-01-31T18:29:35.914Z,23.27
2023-01-31T18:32:06.297Z,21.17
2023-01-31T18:34:37.076Z,22.40
2023-01-31T18:37:10.445Z,20.20
2023-01-31T18:39:38.549Z,19.02
2023-01-31T18:42:06.783Z,18.73
2023-01-31T18:44:34.972Z,23.48
2023-01-31T18:47:03.211Z,23.55
2023-01-31T18:49:31.463Z,23.80
2023-01-31T18:52:01.216Z,20.15
2023-01-31T18:54:29.302Z,25.10
2023-01-31T18:56:58.680Z,21.73
2023-01-31T18:59:27.158Z,20.73
2023-01-31T19:01:55.401Z,20.10
2023-01-31T19:04:23.836Z,18.40
2023-01-31T19:06:52.868Z,20.60
2023-01-31T19:09:23.354Z,20.88
2023-01-31T19:11:53.894Z,22.20
2023-01-31T19:14:22.081Z,22.20
2023-01-31T19:16:50.424Z,21.60
2023-01-31T19:19:18.594Z,19.27
2023-01-31T19:21:46.798Z,20.90
2023-01-31T19:24:15.712Z,24.73
2023-01-31T19:26:45.364Z,26.08
2023-01-31T19:29:16.343Z,14.77
2023-01-31T19:31:44.888Z,16.17
2023-01-31T19:34:13.312Z,17.52
2023-01-31T19:36:44.782Z,9.82
2023-01-31T19:39:14.281Z,16.23
2023-01-31T19:41:44.404Z,12.70
2023-01-31T19:44:12.863Z,17.30
2023-01-31T19:46:41.436Z,17.02
2023-01-31T19:49:10.438Z,15.35
2023-01-31T19:51:39.033Z,23.85
2023-01-31T19:54:07.864Z,16.20
2023-01-31T19:56:35.989Z,18.83
2023-01-31T19:59:06.505Z,19.00
2023-01-31T20:01:35.369Z,20.52
2023-01-31T20:04:03.613Z,16.75
2023-01-31T20:06:34.351Z,20.83
2023-01-31T20:09:07.298Z,19.20
2023-01-31T20:11:36.676Z,17.83
2023-01-31T20:14:06.453Z,24.63
2023-01-31T20:16:34.643Z,23.70
2023-01-31T20:19:03.697Z,26.63
2023-01-31T20:21:32.042Z,26.33
2023-01-31T20:24:00.789Z,24.80
2023-01-31T20:26:29.957Z,28.48
2023-01-31T20:28:58.383Z,25.05
2023-01-31T20:31:28.499Z,34.35
2023-01-31T20:33:56.701Z,25.55
2023-01-31T20:36:25.014Z,33.83
2023-01-31T20:38:55.450Z,36.22
2023-01-31T20:41:23.681Z,34.15
2023-01-31T20:43:54.140Z,33.53
2023-01-31T20:46:22.597Z,30.05
2023-01-31T20:48:52.818Z,32.13
2023-01-31T20:51:20.970Z,30.45
2023-01-31T20:53:49.183Z,34.17
2023-01-31T20:56:17.319Z,38.85
2023-01-31T20:58:45.808Z,35.03
2023-01-31T21:01:14.239Z,34.50
2023-01-31T21:03:42.572Z,40.20
2023-01-31T21:06:14.468Z,35.63
2023-01-31T21:08:42.654Z,28.02
2023-01-31T21:11:12.389Z,42.20
2023-01-31T21:13:43.379Z,43.03
2023-01-31T21:16:15.297Z,36.60
2023-01-31T21:18:44.338Z,34.90
2023-01-31T21:21:23.223Z,30.00
2023-01-31T21:23:52.957Z,37.58
2023-01-31T21:26:22.101Z,28.90
2023-01-31T21:28:50.843Z,46.42
2023-01-31T21:31:20.857Z,24.77
2023-01-31T21:33:50.827Z,24.23
2023-01-31T21:36:22.432Z,35.40
2023-01-31T21:38:50.887Z,32.15
2023-01-31T21:41:37.111Z,35.53
2023-01-31T21:44:06.930Z,28.95
2023-01-31T21:46:35.256Z,23.27
2023-01-31T21:49:04.206Z,33.00
2023-01-31T21:51:33.700Z,22.48
2023-01-31T21:54:03.623Z,12.05
2023-01-31T21:56:31.810Z,16.45
2023-01-31T21:59:00.127Z,19.90
2023-01-31T22:01:30.227Z,17.52
2023-01-31T22:03:58.951Z,9.55
2023-01-31T22:06:31.350Z,14.05
2023-01-31T22:09:02.470Z,12.10
2023-01-31T22:11:33.192Z,12.50
2023-01-31T22:14:02.903Z,15.13
2023-01-31T22:16:31.247Z,18.67
2023-01-31T22:19:00.506Z,19.88
2023-01-31T22:21:31.847Z,14.27
2023-01-31T22:24:05.144Z,18.98
2023-01-31T22:26:35.638Z,24.58
2023-01-31T22:29:05.963Z,24.58
2023-01-31T22:31:34.617Z,24.20
2023-01-31T22:34:03.615Z,27.95
2023-01-31T22:36:32.314Z,24.63
2023-01-31T22:39:02.199Z,27.98
2023-01-31T22:41:30.232Z,26.30
2023-01-31T22:43:58.319Z,40.15
2023-01-31T22:46:28.925Z,44.33
2023-01-31T22:48:57.533Z,36.22
2023-01-31T22:51:29.187Z,45.08
2023-01-31T22:53:58.648Z,36.17
2023-01-31T22:56:31.150Z,37.92
2023-01-31T22:59:00.793Z,45.78
2023-01-31T23:01:31.704Z,51.85
2023-01-31T23:04:00.881Z,44.08
2023-01-31T23:06:29.828Z,41.78
2023-01-31T23:08:58.682Z,42.53
2023-01-31T23:11:28.684Z,37.85
2023-01-31T23:14:00.107Z,48.35
2023-01-31T23:16:45.139Z,36.40
2023-01-31T23:19:14.180Z,34.60
2023-01-31T23:21:43.399Z,39.72
2023-01-31T23:24:11.988Z,37.78
2023-01-31T23:26:42.060Z,29.27
2023-01-31T23:29:10.437Z,38.13
2023-01-31T23:31:38.864Z,44.88
2023-01-31T23:34:09.319Z,34.10
2023-01-31T23:36:38.135Z,37.22
2023-01-31T23:39:06.868Z,35.47
2023-01-31T23:41:35.000Z,40.63
2023-01-31T23:44:04.748Z,37.70
2023-01-31T23:46:32.996Z,37.63
2023-01-31T23:49:01.258Z,47.28
2023-01-31T23:51:31.169Z,33.35
2023-01-31T23:53:59.296Z,35.90
2023-01-31T23:56:27.516Z,53.83
2023-01-31T23:58:56.782Z,36.80
